Terminal Aerodrome Forecast
Issued by NWS

Home | Current Version | Previous Version | Text Only | Print | Product List | Glossary On
Versions: 1 2 3 4 5 6 7 8 9 10 11 12 13 14
000
FTUS45 KRIW 311700
TAFLND
TAF
KLND 311720Z 3118/0118 VRB06KT P6SM FEW110
     FM010200 VRB05KT P6SM BKN150
     FM011200 VRB05KT P6SM FEW090=

USA.gov is the U.S. government's official web portal to all federal, state and local government web resources and services.